createdAt,value
2022-08-16T00:01:40.708Z,13.05
2022-08-16T00:04:07.893Z,13.77
2022-08-16T00:06:39.464Z,13.63
2022-08-16T00:09:06.878Z,14.10
2022-08-16T00:11:33.776Z,13.60
2022-08-16T00:14:00.706Z,14.00
2022-08-16T00:17:05.504Z,13.98
2022-08-16T00:19:22.500Z,13.30
2022-08-16T00:21:53.392Z,14.05
2022-08-16T00:24:32.760Z,13.00
2022-08-16T00:27:01.360Z,13.57
2022-08-16T00:29:29.814Z,13.63
2022-08-16T00:32:01.263Z,14.57
2022-08-16T00:34:43.196Z,13.48
2022-08-16T00:37:20.886Z,13.65
2022-08-16T00:39:58.465Z,13.50
2022-08-16T00:42:32.069Z,13.02
2022-08-16T00:45:08.079Z,14.15
2022-08-16T00:47:39.240Z,13.77
2022-08-16T00:50:11.600Z,12.80
2022-08-16T00:52:50.122Z,13.25
2022-08-16T00:55:22.439Z,12.13
2022-08-16T00:57:59.274Z,13.45
2022-08-16T01:00:28.919Z,12.77
2022-08-16T01:02:57.812Z,12.45
2022-08-16T01:05:25.632Z,12.95
2022-08-16T01:07:53.823Z,13.40
2022-08-16T01:10:32.828Z,14.20
2022-08-16T01:13:15.218Z,13.82
2022-08-16T01:15:52.570Z,14.55
2022-08-16T01:18:39.401Z,14.95
2022-08-16T01:21:39.766Z,15.65
2022-08-16T01:24:53.525Z,15.95
2022-08-16T01:27:20.911Z,13.82
2022-08-16T01:30:20.669Z,14.25
2022-08-16T01:33:02.190Z,13.48
2022-08-16T01:35:41.076Z,12.35
2022-08-16T01:38:49.041Z,13.20
2022-08-16T01:41:26.370Z,13.43
2022-08-16T01:44:00.943Z,12.40
2022-08-16T01:46:41.743Z,14.77
2022-08-16T01:49:11.456Z,13.35
2022-08-16T01:51:41.576Z,13.60
2022-08-16T01:54:10.557Z,14.27
2022-08-16T01:56:40.968Z,13.65
2022-08-16T01:59:15.405Z,13.65
2022-08-16T02:01:43.247Z,14.52
2022-08-16T02:04:10.707Z,14.18
2022-08-16T02:06:46.830Z,13.43
2022-08-16T02:09:14.927Z,12.98
2022-08-16T02:11:53.264Z,13.30
2022-08-16T02:14:26.217Z,13.63
2022-08-16T02:16:53.956Z,14.85
2022-08-16T02:19:21.344Z,13.45
2022-08-16T02:22:08.319Z,13.63
2022-08-16T02:24:42.307Z,13.50
2022-08-16T02:29:41.280Z,13.18
2022-08-16T02:32:49.267Z,12.82
2022-08-16T02:34:58.398Z,14.80
2022-08-16T02:37:39.837Z,14.80
2022-08-16T02:40:13.281Z,14.90
2022-08-16T02:42:49.626Z,14.48
2022-08-16T02:45:17.857Z,17.98
2022-08-16T02:48:00.331Z,23.77
2022-08-16T02:50:55.563Z,20.70
2022-08-16T02:53:18.072Z,17.05
2022-08-16T02:55:45.372Z,13.13
2022-08-16T02:58:17.647Z,13.73
2022-08-16T03:00:45.494Z,14.25
2022-08-16T03:03:17.966Z,14.80
2022-08-16T03:05:50.027Z,14.32
2022-08-16T03:08:49.693Z,13.35
2022-08-16T03:11:06.638Z,14.63
2022-08-16T03:13:44.123Z,13.27
2022-08-16T03:16:38.834Z,14.75
2022-08-16T03:19:01.637Z,14.85
2022-08-16T03:21:29.422Z,14.52
2022-08-16T03:24:29.445Z,13.65
2022-08-16T03:26:53.225Z,13.02
2022-08-16T03:29:19.852Z,15.90
2022-08-16T03:31:46.911Z,15.45
2022-08-16T03:34:19.411Z,13.97
2022-08-16T03:36:47.440Z,14.88
2022-08-16T03:39:15.052Z,14.68
2022-08-16T03:41:50.333Z,15.65
2022-08-16T03:44:40.758Z,15.77
2022-08-16T03:47:10.319Z,17.10
2022-08-16T03:49:37.705Z,17.25
2022-08-16T03:52:05.770Z,17.02
2022-08-16T03:54:32.427Z,15.85
2022-08-16T03:57:02.859Z,15.10
2022-08-16T03:59:32.406Z,16.90
2022-08-16T04:02:01.648Z,15.43
2022-08-16T04:04:33.615Z,17.13
2022-08-16T04:07:05.838Z,14.32
2022-08-16T04:09:37.845Z,14.60
2022-08-16T04:12:10.587Z,14.07
2022-08-16T04:14:46.638Z,15.67
2022-08-16T04:17:15.727Z,14.68
2022-08-16T04:19:45.605Z,13.55
2022-08-16T04:22:13.937Z,15.60
2022-08-16T04:24:54.126Z,13.95
2022-08-16T04:27:21.994Z,14.85
2022-08-16T04:29:52.256Z,13.95
2022-08-16T04:32:19.837Z,12.95
2022-08-16T04:34:47.186Z,15.40
2022-08-16T04:37:16.067Z,15.30
2022-08-16T04:39:46.529Z,16.58
2022-08-16T04:42:17.773Z,17.30
2022-08-16T04:44:53.458Z,16.48
2022-08-16T04:47:24.453Z,16.73
2022-08-16T04:49:52.692Z,16.42
2022-08-16T04:52:33.917Z,15.80
2022-08-16T04:55:37.929Z,15.75
2022-08-16T04:58:45.296Z,13.48
2022-08-16T05:00:54.279Z,13.63
2022-08-16T05:03:21.642Z,14.45
2022-08-16T05:05:59.396Z,15.25
2022-08-16T05:08:32.551Z,15.20
2022-08-16T05:11:01.436Z,14.57
2022-08-16T05:13:39.999Z,14.10
2022-08-16T05:16:20.116Z,13.77
2022-08-16T05:18:49.071Z,13.75
2022-08-16T05:21:16.067Z,14.43
2022-08-16T05:23:51.628Z,15.10
2022-08-16T05:26:24.685Z,16.00
2022-08-16T05:28:56.043Z,14.57
2022-08-16T05:31:29.919Z,14.75
2022-08-16T05:34:01.115Z,13.23
2022-08-16T05:36:34.139Z,12.52
2022-08-16T05:39:08.820Z,13.68
2022-08-16T05:41:44.788Z,12.65
2022-08-16T05:44:22.981Z,13.15
2022-08-16T05:46:54.720Z,13.93
2022-08-16T05:49:23.265Z,12.75
2022-08-16T05:51:50.394Z,13.68
2022-08-16T05:54:25.115Z,13.20
2022-08-16T05:56:53.573Z,12.95
2022-08-16T05:59:22.163Z,12.15
2022-08-16T06:01:50.768Z,12.55
2022-08-16T06:04:35.219Z,12.45
2022-08-16T06:07:08.260Z,12.18
2022-08-16T06:09:42.832Z,12.75
2022-08-16T06:12:27.120Z,12.98
2022-08-16T06:15:07.854Z,13.73
2022-08-16T06:17:42.738Z,13.20
2022-08-16T06:20:24.041Z,12.95
2022-08-16T06:22:58.456Z,12.18
2022-08-16T06:25:35.890Z,11.82
2022-08-16T06:28:08.428Z,11.50
2022-08-16T06:30:43.179Z,11.48
2022-08-16T06:33:12.423Z,11.15
2022-08-16T06:35:41.727Z,11.57
2022-08-16T06:38:32.428Z,11.38
2022-08-16T06:40:55.633Z,10.98
2022-08-16T06:43:27.654Z,11.52
2022-08-16T06:45:55.673Z,12.02
2022-08-16T06:48:32.497Z,12.07
2022-08-16T06:51:01.761Z,11.82
2022-08-16T06:53:29.745Z,12.60
2022-08-16T06:55:59.047Z,12.07
2022-08-16T06:58:31.724Z,10.60
2022-08-16T07:01:00.470Z,11.88
2022-08-16T07:03:32.200Z,11.10
2022-08-16T07:05:59.772Z,11.18
2022-08-16T07:08:28.087Z,12.20
2022-08-16T07:10:56.024Z,10.38
2022-08-16T07:13:51.311Z,10.75
2022-08-16T07:16:15.520Z,10.10
2022-08-16T07:19:01.627Z,10.23
2022-08-16T07:21:46.172Z,9.75
2022-08-16T07:24:30.508Z,10.30
2022-08-16T07:27:00.676Z,10.55
2022-08-16T07:29:31.802Z,10.00
2022-08-16T07:32:00.791Z,10.88
2022-08-16T07:34:35.194Z,10.52
2022-08-16T07:37:07.209Z,10.55
2022-08-16T07:39:34.295Z,10.27
2022-08-16T07:42:09.891Z,10.40
2022-08-16T07:44:49.100Z,10.35
2022-08-16T07:47:17.508Z,10.10
2022-08-16T07:49:52.804Z,10.68
2022-08-16T07:52:20.821Z,9.55
2022-08-16T07:54:48.986Z,10.02
2022-08-16T07:57:19.858Z,10.05
2022-08-16T07:59:51.057Z,9.50
2022-08-16T08:02:20.253Z,10.10
2022-08-16T08:04:49.000Z,10.15
2022-08-16T08:07:16.506Z,9.32
2022-08-16T08:09:44.149Z,14.32
2022-08-16T08:12:32.286Z,10.35
2022-08-16T08:14:59.475Z,13.65
2022-08-16T08:17:42.496Z,10.13
2022-08-16T08:20:26.379Z,11.07
2022-08-16T08:23:01.088Z,11.02
2022-08-16T08:25:53.435Z,10.25
2022-08-16T08:28:17.781Z,9.88
2022-08-16T08:30:51.833Z,11.40
2022-08-16T08:33:28.725Z,10.60
2022-08-16T08:35:57.264Z,10.15
2022-08-16T08:38:44.178Z,11.38
2022-08-16T08:41:18.352Z,11.38
2022-08-16T08:46:18.404Z,11.82
2022-08-16T08:49:00.037Z,10.68
2022-08-16T08:51:31.891Z,11.23
2022-08-16T08:54:06.744Z,11.30
2022-08-16T08:56:37.288Z,10.73
2022-08-16T08:59:13.564Z,12.88
2022-08-16T09:01:57.263Z,10.18
2022-08-16T09:04:27.149Z,10.65
2022-08-16T09:06:54.548Z,11.50
2022-08-16T09:09:23.056Z,11.73
2022-08-16T09:12:04.033Z,11.98
2022-08-16T09:14:35.623Z,11.05
2022-08-16T09:17:11.805Z,10.57
2022-08-16T09:19:41.365Z,11.07
2022-08-16T09:22:20.963Z,10.68
2022-08-16T09:24:52.573Z,10.82
2022-08-16T09:27:21.776Z,10.37
2022-08-16T09:30:00.126Z,9.80
2022-08-16T09:32:30.957Z,10.38
2022-08-16T09:34:59.709Z,10.43
2022-08-16T09:37:29.599Z,9.80
2022-08-16T09:39:59.763Z,10.20
2022-08-16T09:42:29.075Z,9.63
2022-08-16T09:45:11.273Z,11.07
2022-08-16T09:47:57.224Z,11.70
2022-08-16T09:50:36.831Z,11.25
2022-08-16T09:53:15.278Z,11.48
2022-08-16T09:55:45.980Z,11.32
2022-08-16T10:01:02.943Z,12.80
2022-08-16T10:03:30.482Z,12.73
2022-08-16T10:05:58.083Z,12.18
2022-08-16T10:08:26.000Z,11.88
2022-08-16T10:11:29.377Z,11.23
2022-08-16T10:13:56.062Z,11.48
2022-08-16T10:16:22.786Z,12.00
2022-08-16T10:19:01.827Z,12.10
2022-08-16T10:21:33.604Z,12.05
2022-08-16T10:24:01.465Z,11.27
2022-08-16T10:27:18.204Z,10.65
2022-08-16T10:29:20.184Z,10.82
2022-08-16T10:31:53.855Z,11.10
2022-08-16T10:34:32.058Z,10.48
2022-08-16T10:37:02.034Z,10.93
2022-08-16T10:39:40.839Z,10.18
2022-08-16T10:42:10.258Z,11.40
2022-08-16T10:44:40.464Z,11.32
2022-08-16T10:47:10.079Z,10.93
2022-08-16T10:49:39.164Z,10.93
2022-08-16T10:52:19.029Z,10.43
2022-08-16T10:57:34.778Z,10.82
2022-08-16T11:00:06.051Z,9.75
2022-08-16T11:02:58.615Z,10.02
2022-08-16T11:05:28.674Z,10.05
2022-08-16T11:07:55.589Z,9.57
2022-08-16T11:19:03.962Z,11.07
2022-08-16T11:21:34.041Z,10.70
2022-08-16T11:24:01.818Z,9.95
2022-08-16T11:26:30.713Z,9.95
2022-08-16T11:29:14.456Z,9.23
2022-08-16T11:31:45.685Z,10.02
2022-08-16T11:34:21.229Z,10.23
2022-08-16T11:36:53.974Z,10.70
2022-08-16T11:39:29.455Z,10.48
2022-08-16T11:41:57.228Z,9.25
2022-08-16T11:44:56.211Z,9.68
2022-08-16T11:47:11.795Z,9.52
2022-08-16T11:49:38.421Z,9.80
2022-08-16T11:52:05.324Z,11.13
2022-08-16T11:54:33.216Z,9.05
2022-08-16T11:57:04.544Z,9.63
2022-08-16T11:59:39.953Z,9.40
2022-08-16T12:02:32.595Z,9.20
2022-08-16T12:04:54.723Z,9.02
2022-08-16T12:07:23.505Z,9.63
2022-08-16T12:09:53.290Z,9.20
2022-08-16T12:12:21.019Z,9.27
2022-08-16T12:14:55.857Z,9.45
2022-08-16T12:17:32.069Z,9.77
2022-08-16T12:20:00.842Z,9.15
2022-08-16T12:22:29.167Z,8.77
2022-08-16T12:24:55.846Z,9.25
2022-08-16T12:27:24.751Z,8.07
2022-08-16T12:29:58.421Z,9.90
2022-08-16T12:32:37.811Z,8.63
2022-08-16T12:35:17.274Z,8.80
2022-08-16T12:37:47.318Z,9.10
2022-08-16T12:40:25.045Z,9.13
2022-08-16T12:42:58.841Z,9.35
2022-08-16T12:45:28.489Z,8.07
2022-08-16T12:48:33.728Z,9.07
2022-08-16T12:51:01.323Z,8.93
2022-08-16T12:53:33.510Z,8.75
2022-08-16T12:56:01.033Z,9.27
2022-08-16T12:58:50.603Z,8.52
2022-08-16T13:01:28.741Z,8.18
2022-08-16T13:04:11.447Z,8.00
2022-08-16T13:06:42.258Z,11.18
2022-08-16T13:09:26.611Z,8.32
2022-08-16T13:12:07.305Z,9.43
2022-08-16T13:14:41.224Z,8.45
2022-08-16T13:17:17.029Z,9.02
2022-08-16T13:22:34.400Z,9.02
2022-08-16T13:25:01.124Z,8.68
2022-08-16T13:28:02.747Z,8.60
2022-08-16T13:30:35.440Z,8.25
2022-08-16T13:33:11.526Z,9.43
2022-08-16T13:35:44.600Z,9.48
2022-08-16T13:38:24.597Z,8.77
2022-08-16T13:40:57.213Z,9.43
2022-08-16T13:43:28.884Z,8.10
2022-08-16T13:46:04.221Z,8.57
2022-08-16T13:48:42.898Z,8.75
2022-08-16T13:51:18.033Z,7.55
2022-08-16T13:53:49.631Z,9.27
2022-08-16T13:56:25.233Z,7.97
2022-08-16T13:58:54.116Z,9.20
2022-08-16T14:01:22.364Z,8.60
2022-08-16T14:03:54.532Z,9.02
2022-08-16T14:06:22.087Z,8.40
2022-08-16T14:08:50.243Z,8.45
2022-08-16T14:11:26.212Z,9.07
2022-08-16T14:13:53.420Z,9.07
2022-08-16T14:16:24.239Z,8.07
2022-08-16T14:19:00.196Z,10.30
2022-08-16T14:21:34.828Z,8.77
2022-08-16T14:24:12.895Z,9.20
2022-08-16T14:26:52.813Z,8.60
2022-08-16T14:29:20.006Z,8.23
2022-08-16T14:31:46.792Z,9.55
2022-08-16T14:34:20.868Z,8.18
2022-08-16T14:36:52.097Z,9.35
2022-08-16T14:39:21.996Z,8.82
2022-08-16T14:41:49.303Z,8.55
2022-08-16T14:44:20.067Z,8.48
2022-08-16T14:46:46.912Z,9.63
2022-08-16T14:49:14.524Z,9.10
2022-08-16T14:51:46.182Z,9.90
2022-08-16T14:54:15.228Z,9.63
2022-08-16T14:56:54.458Z,10.05
2022-08-16T14:59:21.960Z,10.25
2022-08-16T15:01:59.341Z,9.68
2022-08-16T15:04:37.902Z,9.70
2022-08-16T15:07:15.939Z,9.50
2022-08-16T15:10:00.689Z,8.50
2022-08-16T15:12:31.172Z,8.35
2022-08-16T15:15:04.402Z,9.68
2022-08-16T15:17:39.615Z,10.35
2022-08-16T15:20:08.644Z,8.77
2022-08-16T15:22:41.621Z,10.65
2022-08-16T15:25:13.802Z,12.10
2022-08-16T15:27:42.688Z,11.60
2022-08-16T15:30:57.316Z,10.00
2022-08-16T15:33:07.888Z,9.48
2022-08-16T15:35:38.737Z,8.90
2022-08-16T15:38:08.848Z,9.50
2022-08-16T15:40:54.902Z,8.23
2022-08-16T15:43:33.870Z,9.30
2022-08-16T15:46:54.553Z,7.80
2022-08-16T15:49:15.482Z,9.60
2022-08-16T15:51:45.453Z,8.05
2022-08-16T15:54:16.591Z,10.15
2022-08-16T15:57:00.211Z,16.55
2022-08-16T15:59:48.104Z,12.35
2022-08-16T16:02:20.559Z,11.82
2022-08-16T16:04:54.901Z,8.48
2022-08-16T16:07:21.966Z,9.20
2022-08-16T16:09:48.988Z,8.75
2022-08-16T16:12:50.283Z,8.40
2022-08-16T16:15:06.663Z,7.68
2022-08-16T16:17:34.339Z,7.97
2022-08-16T16:20:14.599Z,16.70
2022-08-16T16:22:43.582Z,8.00
2022-08-16T16:25:15.770Z,8.27
2022-08-16T16:27:43.619Z,8.57
2022-08-16T16:30:32.749Z,8.68
2022-08-16T16:32:58.809Z,8.35
2022-08-16T16:35:32.564Z,7.55
2022-08-16T16:37:59.843Z,8.20
2022-08-16T16:40:32.235Z,14.20
2022-08-16T16:43:00.002Z,11.18
2022-08-16T16:45:33.329Z,10.43
2022-08-16T16:48:12.058Z,11.63
2022-08-16T16:50:44.692Z,10.60
2022-08-16T16:53:17.452Z,9.20
2022-08-16T16:55:47.484Z,9.82
2022-08-16T16:58:43.153Z,7.97
2022-08-16T17:01:10.990Z,8.98
2022-08-16T17:03:38.761Z,11.98
2022-08-16T17:06:10.406Z,9.10
2022-08-16T17:08:40.966Z,10.15
2022-08-16T17:11:10.019Z,7.60
2022-08-16T17:13:37.199Z,6.10
2022-08-16T17:16:05.319Z,7.40
2022-08-16T17:19:15.715Z,9.60
2022-08-16T17:21:19.165Z,13.82
2022-08-16T17:23:58.226Z,22.33
2022-08-16T17:26:29.557Z,16.75
2022-08-16T17:28:58.795Z,19.70
2022-08-16T17:31:41.044Z,13.25
2022-08-16T17:34:29.319Z,7.78
2022-08-16T17:36:59.752Z,18.13
2022-08-16T17:39:29.604Z,25.25
2022-08-16T17:41:58.218Z,11.23
2022-08-16T17:44:25.372Z,10.60
2022-08-16T17:46:53.166Z,7.97
2022-08-16T17:49:21.264Z,9.40
2022-08-16T17:51:48.002Z,8.75
2022-08-16T17:54:20.248Z,6.60
2022-08-16T17:57:01.311Z,7.57
2022-08-16T17:59:29.327Z,20.38
2022-08-16T18:01:56.720Z,25.92
2022-08-16T18:04:49.899Z,13.27
2022-08-16T18:07:11.797Z,9.55
2022-08-16T18:09:41.048Z,9.98
2022-08-16T18:12:44.786Z,10.38
2022-08-16T18:15:04.565Z,10.10
2022-08-16T18:17:32.032Z,10.15
2022-08-16T18:19:58.821Z,9.68
2022-08-16T18:22:30.608Z,9.90
2022-08-16T18:24:58.348Z,9.82
2022-08-16T18:27:27.082Z,10.23
2022-08-16T18:29:54.873Z,10.13
2022-08-16T18:32:24.978Z,10.48
2022-08-16T18:34:53.846Z,11.35
2022-08-16T18:37:21.837Z,11.38
2022-08-16T18:39:48.554Z,10.48
2022-08-16T18:42:15.677Z,11.32
2022-08-16T18:44:43.830Z,10.20
2022-08-16T18:47:10.598Z,10.43
2022-08-16T18:49:37.302Z,8.93
2022-08-16T18:52:04.291Z,9.10
2022-08-16T18:54:32.902Z,8.45
2022-08-16T18:57:00.788Z,8.48
2022-08-16T18:59:30.976Z,8.65
2022-08-16T19:02:00.282Z,7.90
2022-08-16T19:04:56.411Z,7.97
2022-08-16T19:07:29.605Z,9.57
2022-08-16T19:09:58.195Z,10.27
2022-08-16T19:12:38.417Z,10.00
2022-08-16T19:15:18.108Z,10.55
2022-08-16T19:17:45.585Z,10.30
2022-08-16T19:20:17.376Z,9.65
2022-08-16T19:23:04.500Z,9.45
2022-08-16T19:25:47.514Z,8.45
2022-08-16T19:28:49.708Z,7.10
2022-08-16T19:31:16.481Z,7.93
2022-08-16T19:33:54.145Z,7.90
2022-08-16T19:36:30.407Z,7.15
2022-08-16T19:39:05.149Z,7.53
2022-08-16T19:41:33.071Z,7.38
2022-08-16T19:43:59.726Z,8.27
2022-08-16T19:46:26.401Z,9.18
2022-08-16T19:48:53.090Z,9.55
2022-08-16T19:51:19.763Z,9.88
2022-08-16T19:53:46.381Z,8.88
2022-08-16T19:56:13.064Z,9.68
2022-08-16T19:58:50.949Z,9.85
2022-08-16T20:01:26.322Z,9.35
2022-08-16T20:03:52.955Z,9.50
2022-08-16T20:06:37.607Z,9.13
2022-08-16T20:09:06.423Z,9.18
2022-08-16T20:11:34.688Z,8.98
2022-08-16T20:14:01.762Z,9.45
2022-08-16T20:16:28.427Z,9.85
2022-08-16T20:18:55.083Z,9.57
2022-08-16T20:21:21.775Z,9.05
2022-08-16T20:23:48.383Z,9.25
2022-08-16T20:26:15.441Z,9.13
2022-08-16T20:28:52.991Z,10.40
2022-08-16T20:31:25.715Z,8.75
2022-08-16T20:33:53.337Z,8.90
2022-08-16T20:36:20.307Z,8.70
2022-08-16T20:38:47.730Z,9.68
2022-08-16T20:41:15.704Z,9.95
2022-08-16T20:43:42.420Z,9.93
2022-08-16T20:46:09.597Z,10.38
2022-08-16T20:48:36.270Z,9.63
2022-08-16T20:51:03.343Z,8.85
2022-08-16T20:53:29.941Z,9.27
2022-08-16T20:55:56.781Z,10.05
2022-08-16T20:58:23.403Z,9.23
2022-08-16T21:00:50.226Z,9.32
2022-08-16T21:03:16.987Z,9.90
2022-08-16T21:05:46.702Z,8.68
2022-08-16T21:08:44.079Z,9.32
2022-08-16T21:11:04.667Z,9.57
2022-08-16T21:13:32.823Z,9.93
2022-08-16T21:16:01.092Z,8.65
2022-08-16T21:18:28.049Z,9.82
2022-08-16T21:20:55.361Z,9.45
2022-08-16T21:23:22.277Z,9.70
2022-08-16T21:25:58.242Z,9.73
2022-08-16T21:28:41.839Z,10.23
2022-08-16T21:31:14.308Z,9.93
2022-08-16T21:33:41.040Z,9.77
2022-08-16T21:36:08.167Z,10.20
2022-08-16T21:38:34.960Z,10.18
2022-08-16T21:41:05.663Z,9.95
2022-08-16T21:43:33.536Z,9.40
2022-08-16T21:46:01.895Z,9.82
2022-08-16T21:48:34.779Z,9.88
2022-08-16T21:51:06.504Z,10.00
2022-08-16T21:53:33.386Z,10.13
2022-08-16T21:56:01.271Z,10.45
2022-08-16T21:58:29.989Z,9.52
2022-08-16T22:00:56.925Z,9.80
2022-08-16T22:03:24.373Z,9.93
2022-08-16T22:06:11.699Z,9.85
2022-08-16T22:08:49.782Z,9.80
2022-08-16T22:11:24.273Z,10.27
2022-08-16T22:13:58.122Z,9.82
2022-08-16T22:16:32.237Z,10.18
2022-08-16T22:19:00.157Z,10.82
2022-08-16T22:21:27.067Z,11.45
2022-08-16T22:23:56.764Z,11.70
2022-08-16T22:26:32.597Z,11.20
2022-08-16T22:29:11.204Z,11.15
2022-08-16T22:31:39.929Z,9.88
2022-08-16T22:34:07.970Z,10.55
2022-08-16T22:36:35.411Z,10.50
2022-08-16T22:39:06.913Z,9.57
2022-08-16T22:41:34.940Z,9.98
2022-08-16T22:44:03.433Z,9.77
2022-08-16T22:46:31.025Z,10.57
2022-08-16T22:48:58.245Z,10.00
2022-08-16T22:51:27.541Z,9.75
2022-08-16T22:53:55.340Z,9.45
2022-08-16T22:56:23.303Z,9.15
2022-08-16T22:58:50.084Z,8.73
2022-08-16T23:01:18.516Z,9.68
2022-08-16T23:03:45.254Z,8.85
2022-08-16T23:06:12.577Z,9.43
2022-08-16T23:08:41.400Z,8.45
2022-08-16T23:11:10.569Z,8.48
2022-08-16T23:13:37.820Z,10.10
2022-08-16T23:16:16.706Z,11.68
2022-08-16T23:18:43.341Z,15.57
2022-08-16T23:21:10.848Z,13.95
2022-08-16T23:23:38.767Z,9.57
2022-08-16T23:26:46.135Z,8.77
2022-08-16T23:28:53.432Z,8.23
2022-08-16T23:31:20.260Z,8.80
2022-08-16T23:33:46.991Z,8.05
2022-08-16T23:36:13.727Z,8.57
2022-08-16T23:38:41.317Z,8.57
2022-08-16T23:41:12.243Z,8.85
2022-08-16T23:43:43.535Z,8.50
2022-08-16T23:46:15.145Z,8.43
2022-08-16T23:49:58.644Z,8.82
2022-08-16T23:51:29.112Z,8.60
2022-08-16T23:53:55.943Z,8.75
2022-08-16T23:56:22.698Z,8.55
2022-08-16T23:58:52.585Z,8.43
